createdAt,value
2019-04-25T00:02:32.488Z,13.40
2019-04-25T00:05:03.286Z,13.37
2019-04-25T00:07:34.465Z,13.36
2019-04-25T00:10:06.119Z,13.28
2019-04-25T00:12:36.082Z,13.21
2019-04-25T00:15:06.612Z,13.17
2019-04-25T00:17:36.497Z,13.09
2019-04-25T00:20:07.760Z,13.05
2019-04-25T00:22:49.636Z,13.01
2019-04-25T00:25:46.935Z,12.99
2019-04-25T00:28:16.531Z,12.94
2019-04-25T00:30:46.443Z,12.88
2019-04-25T00:33:16.505Z,12.86
2019-04-25T00:35:46.513Z,12.81
2019-04-25T00:38:16.402Z,12.78
2019-04-25T00:40:46.313Z,12.76
2019-04-25T00:43:16.230Z,12.70
2019-04-25T00:45:46.127Z,12.67
2019-04-25T00:48:16.062Z,12.66
2019-04-25T00:50:46.059Z,12.59
2019-04-25T00:53:16.501Z,12.67
2019-04-25T00:55:46.618Z,12.71
2019-04-25T00:58:26.387Z,12.76
2019-04-25T01:01:04.859Z,12.80
2019-04-25T01:03:35.190Z,12.82
2019-04-25T01:06:05.381Z,12.87
2019-04-25T01:08:35.600Z,12.88
2019-04-25T01:11:05.898Z,12.90
2019-04-25T01:13:36.037Z,12.94
2019-04-25T01:16:05.978Z,12.90
2019-04-25T01:18:37.484Z,12.87
2019-04-25T01:21:08.370Z,12.75
2019-04-25T01:23:38.372Z,12.68
2019-04-25T01:26:08.535Z,12.66
2019-04-25T01:28:38.545Z,12.60
2019-04-25T01:31:10.608Z,12.54
2019-04-25T01:33:40.479Z,12.51
2019-04-25T01:36:24.558Z,12.49
2019-04-25T01:38:59.531Z,12.46
2019-04-25T01:41:51.790Z,12.41
2019-04-25T01:44:28.444Z,12.38
2019-04-25T01:46:58.505Z,12.34
2019-04-25T01:49:28.283Z,12.30
2019-04-25T01:51:59.472Z,12.26
2019-04-25T01:54:30.561Z,12.23
2019-04-25T01:57:00.643Z,12.20
2019-04-25T01:59:30.474Z,12.19
2019-04-25T02:02:00.783Z,12.18
2019-04-25T02:04:32.208Z,12.16
2019-04-25T02:07:03.605Z,12.12
2019-04-25T02:09:33.878Z,12.07
2019-04-25T02:12:15.558Z,12.06
2019-04-25T02:14:46.139Z,12.03
2019-04-25T02:17:16.720Z,12.04
2019-04-25T02:19:47.014Z,12.02
2019-04-25T02:22:16.963Z,12.02
2019-04-25T02:24:47.046Z,12.01
2019-04-25T02:27:17.018Z,11.98
2019-04-25T02:29:47.106Z,11.98
2019-04-25T02:32:17.133Z,11.93
2019-04-25T02:34:47.036Z,11.92
2019-04-25T02:37:17.351Z,11.90
2019-04-25T02:39:47.253Z,11.87
2019-04-25T02:42:17.249Z,11.83
2019-04-25T02:44:56.138Z,11.78
2019-04-25T02:47:34.461Z,11.75
2019-04-25T02:50:36.234Z,11.73
2019-04-25T02:53:14.072Z,11.66
2019-04-25T02:55:44.661Z,11.60
2019-04-25T02:58:14.588Z,11.55
2019-04-25T03:00:55.105Z,11.49
2019-04-25T03:03:16.217Z,11.50
2019-04-25T03:05:47.792Z,11.47
2019-04-25T03:08:18.015Z,11.50
2019-04-25T03:10:48.933Z,11.48
2019-04-25T03:13:19.229Z,11.46
2019-04-25T03:15:52.542Z,11.43
2019-04-25T03:18:24.736Z,11.42
2019-04-25T03:21:13.886Z,11.41
2019-04-25T03:23:46.205Z,11.34
2019-04-25T03:26:14.846Z,11.30
2019-04-25T03:28:44.655Z,11.30
2019-04-25T03:31:21.931Z,11.28
2019-04-25T03:33:46.499Z,11.26
2019-04-25T03:36:17.044Z,11.25
2019-04-25T03:38:47.082Z,11.23
2019-04-25T03:41:16.992Z,11.18
2019-04-25T03:43:47.031Z,11.16
2019-04-25T03:46:17.029Z,11.17
2019-04-25T03:48:48.096Z,11.17
2019-04-25T03:51:18.183Z,11.16
2019-04-25T03:53:48.099Z,11.16
2019-04-25T03:56:17.963Z,11.14
2019-04-25T03:58:47.811Z,11.12
2019-04-25T04:01:17.797Z,11.13
2019-04-25T04:03:47.745Z,11.11
2019-04-25T04:06:17.650Z,11.13
2019-04-25T04:08:47.433Z,11.13
2019-04-25T04:11:17.476Z,10.99
2019-04-25T04:13:47.407Z,11.10
2019-04-25T04:16:20.332Z,11.08
2019-04-25T04:18:54.084Z,11.03
2019-04-25T04:21:36.972Z,10.96
2019-04-25T04:24:20.236Z,10.88
2019-04-25T04:27:19.908Z,10.84
2019-04-25T04:29:49.896Z,10.80
2019-04-25T04:32:20.345Z,10.79
2019-04-25T04:34:50.454Z,10.83
2019-04-25T04:37:20.759Z,10.88
2019-04-25T04:39:50.707Z,10.92
2019-04-25T04:42:21.222Z,10.94
2019-04-25T04:44:53.439Z,10.96
2019-04-25T04:47:23.703Z,10.98
2019-04-25T04:49:54.123Z,11.00
2019-04-25T04:52:25.788Z,11.02
2019-04-25T04:55:05.830Z,11.05
2019-04-25T04:57:33.275Z,11.08
2019-04-25T04:59:59.310Z,11.11
2019-04-25T05:02:41.115Z,11.10
2019-04-25T05:05:36.540Z,11.14
2019-04-25T05:08:12.993Z,11.18
2019-04-25T05:10:43.917Z,11.20
2019-04-25T05:13:15.399Z,11.23
2019-04-25T05:15:45.585Z,11.27
2019-04-25T05:18:25.418Z,11.32
2019-04-25T05:20:48.196Z,11.36
2019-04-25T05:23:18.864Z,11.41
2019-04-25T05:25:48.998Z,12.45
2019-04-25T05:28:19.405Z,14.38
2019-04-25T05:30:58.706Z,15.59
2019-04-25T05:33:28.687Z,16.39
2019-04-25T05:35:58.649Z,16.95
2019-04-25T05:38:28.594Z,17.64
2019-04-25T05:41:04.849Z,17.89
2019-04-25T05:43:35.163Z,18.22
2019-04-25T05:46:05.237Z,18.60
2019-04-25T05:48:35.048Z,19.02
2019-04-25T05:51:05.118Z,18.89
2019-04-25T05:53:34.985Z,18.30
2019-04-25T05:56:05.071Z,18.08
2019-04-25T05:58:35.341Z,18.35
2019-04-25T06:01:05.381Z,18.77
2019-04-25T06:03:35.199Z,19.34
2019-04-25T06:06:05.363Z,19.30
2019-04-25T06:08:38.116Z,18.85
2019-04-25T06:11:15.254Z,18.43
2019-04-25T06:14:10.174Z,18.43
2019-04-25T06:16:40.793Z,17.76
2019-04-25T06:19:24.303Z,17.21
2019-04-25T06:21:54.508Z,16.67
2019-04-25T06:24:47.927Z,16.16
2019-04-25T06:27:26.904Z,15.72
2019-04-25T06:30:07.904Z,15.56
2019-04-25T06:32:37.709Z,15.54
2019-04-25T06:35:08.068Z,15.47
2019-04-25T06:37:38.517Z,15.48
2019-04-25T06:40:10.324Z,15.50
2019-04-25T06:42:40.191Z,15.46
2019-04-25T06:45:25.014Z,15.45
2019-04-25T06:48:04.034Z,15.49
2019-04-25T06:50:35.420Z,15.48
2019-04-25T06:53:05.483Z,15.40
2019-04-25T06:55:35.457Z,15.40
2019-04-25T06:58:11.736Z,15.34
2019-04-25T07:00:42.610Z,15.28
2019-04-25T07:03:09.220Z,15.21
2019-04-25T07:05:40.501Z,15.12
2019-04-25T07:08:10.795Z,15.10
2019-04-25T07:10:41.312Z,15.09
2019-04-25T07:13:11.287Z,15.13
2019-04-25T07:15:41.132Z,15.14
2019-04-25T07:18:11.149Z,15.09
2019-04-25T07:20:41.204Z,15.10
2019-04-25T07:23:11.089Z,14.98
2019-04-25T07:25:45.728Z,15.01
2019-04-25T07:28:32.967Z,15.11
2019-04-25T07:31:13.392Z,15.22
2019-04-25T07:34:05.066Z,15.31
2019-04-25T07:36:36.296Z,15.39
2019-04-25T07:39:10.689Z,15.44
2019-04-25T07:41:40.879Z,15.49
2019-04-25T07:44:10.843Z,15.53
2019-04-25T07:46:40.763Z,15.56
2019-04-25T07:49:10.671Z,15.58
2019-04-25T07:51:40.861Z,15.62
2019-04-25T07:54:10.954Z,15.62
2019-04-25T07:56:40.930Z,15.66
2019-04-25T07:59:10.882Z,15.77
2019-04-25T08:01:40.829Z,15.85
2019-04-25T08:04:11.212Z,16.00
2019-04-25T08:06:41.199Z,16.02
2019-04-25T08:09:12.223Z,16.06
2019-04-25T08:11:43.429Z,16.10
2019-04-25T08:14:34.199Z,16.18
2019-04-25T08:17:05.097Z,16.28
2019-04-25T08:19:35.622Z,16.33
2019-04-25T08:22:05.630Z,16.34
2019-04-25T08:24:37.221Z,16.45
2019-04-25T08:27:07.384Z,16.49
2019-04-25T08:29:39.509Z,16.52
2019-04-25T08:32:09.016Z,16.58
2019-04-25T08:34:38.926Z,16.71
2019-04-25T08:37:18.118Z,16.86
2019-04-25T08:39:40.700Z,16.90
2019-04-25T08:42:10.511Z,16.99
2019-04-25T08:44:41.285Z,17.10
2019-04-25T08:47:11.454Z,17.18
2019-04-25T08:49:53.866Z,17.24
2019-04-25T08:52:24.396Z,17.35
2019-04-25T08:55:08.995Z,17.46
2019-04-25T08:57:56.667Z,17.53
2019-04-25T09:00:59.205Z,17.69
2019-04-25T09:03:24.146Z,17.86
2019-04-25T09:05:54.345Z,17.95
2019-04-25T09:08:24.261Z,18.07
2019-04-25T09:10:54.067Z,18.12
2019-04-25T09:13:24.075Z,18.23
2019-04-25T09:15:54.158Z,18.33
2019-04-25T09:18:24.205Z,18.28
2019-04-25T09:20:54.126Z,18.27
2019-04-25T09:23:24.099Z,18.34
2019-04-25T09:25:54.480Z,18.59
2019-04-25T09:28:24.473Z,18.88
2019-04-25T09:30:54.717Z,19.03
2019-04-25T09:33:24.890Z,19.05
2019-04-25T09:35:54.861Z,19.10
2019-04-25T09:38:24.874Z,19.11
2019-04-25T09:40:54.784Z,19.11
2019-04-25T09:43:24.754Z,19.19
2019-04-25T09:46:04.144Z,19.40
2019-04-25T09:48:54.593Z,19.58
2019-04-25T09:51:31.014Z,19.87
2019-04-25T09:54:10.956Z,20.24
2019-04-25T09:56:46.078Z,20.39
2019-04-25T09:59:27.230Z,20.50
2019-04-25T10:01:51.331Z,20.49
2019-04-25T10:04:23.105Z,20.49
2019-04-25T10:06:53.605Z,20.46
2019-04-25T10:09:23.999Z,20.44
2019-04-25T10:11:54.740Z,20.46
2019-04-25T10:15:11.690Z,20.38
2019-04-25T10:17:41.530Z,20.42
2019-04-25T10:20:14.449Z,20.55
2019-04-25T10:22:44.579Z,20.45
2019-04-25T10:25:17.066Z,20.38
2019-04-25T10:27:49.261Z,20.36
2019-04-25T10:30:23.100Z,20.43
2019-04-25T10:32:50.883Z,20.41
2019-04-25T10:35:21.528Z,20.43
2019-04-25T10:37:51.437Z,20.52
2019-04-25T10:40:24.704Z,20.47
2019-04-25T10:42:54.227Z,20.54
2019-04-25T10:45:26.085Z,20.65
2019-04-25T10:47:56.567Z,20.68
2019-04-25T10:50:26.529Z,20.82
2019-04-25T10:52:56.493Z,21.00
2019-04-25T10:55:26.599Z,21.04
2019-04-25T10:57:56.496Z,21.11
2019-04-25T11:00:33.969Z,21.04
2019-04-25T11:03:16.117Z,20.92
2019-04-25T11:05:46.104Z,20.77
2019-04-25T11:08:16.933Z,20.86
2019-04-25T11:10:49.022Z,20.83
2019-04-25T11:13:19.685Z,20.86
2019-04-25T11:15:50.131Z,20.96
2019-04-25T11:18:21.538Z,21.12
2019-04-25T11:20:51.507Z,21.34
2019-04-25T11:23:22.072Z,21.52
2019-04-25T11:25:54.164Z,21.56
2019-04-25T11:28:23.691Z,21.60
2019-04-25T11:30:54.482Z,21.55
2019-04-25T11:33:25.494Z,21.48
2019-04-25T11:35:56.216Z,21.54
2019-04-25T11:38:37.055Z,21.66
2019-04-25T11:41:10.822Z,21.61
2019-04-25T11:43:40.695Z,21.46
2019-04-25T11:46:10.690Z,21.37
2019-04-25T11:48:40.767Z,21.50
2019-04-25T11:51:11.296Z,21.75
2019-04-25T11:53:42.109Z,21.94
2019-04-25T11:56:13.678Z,21.83
2019-04-25T11:58:45.616Z,21.58
2019-04-25T12:01:17.187Z,21.57
2019-04-25T12:03:49.050Z,21.90
2019-04-25T12:06:19.862Z,22.37
2019-04-25T12:08:50.002Z,22.71
2019-04-25T12:11:21.336Z,22.76
2019-04-25T12:13:53.792Z,23.01
2019-04-25T12:16:24.698Z,22.96
2019-04-25T12:18:56.490Z,22.72
2019-04-25T12:21:26.503Z,22.80
2019-04-25T12:23:56.578Z,22.86
2019-04-25T12:26:26.471Z,22.88
2019-04-25T12:28:56.587Z,22.80
2019-04-25T12:31:26.524Z,22.63
2019-04-25T12:33:57.611Z,22.62
2019-04-25T12:36:28.618Z,22.77
2019-04-25T12:38:58.841Z,22.75
2019-04-25T12:41:29.665Z,22.91
2019-04-25T12:44:17.288Z,23.11
2019-04-25T12:46:48.499Z,23.15
2019-04-25T12:49:19.260Z,23.19
2019-04-25T12:51:49.806Z,23.24
2019-04-25T12:54:19.964Z,23.23
2019-04-25T12:56:50.103Z,23.16
2019-04-25T12:59:20.115Z,23.13
2019-04-25T13:01:53.649Z,23.26
2019-04-25T13:04:23.322Z,23.19
2019-04-25T13:06:54.464Z,23.22
2019-04-25T13:09:24.557Z,23.44
2019-04-25T13:11:54.718Z,23.42
2019-04-25T13:14:25.136Z,23.23
2019-04-25T13:16:55.128Z,23.10
2019-04-25T13:19:26.525Z,23.13
2019-04-25T13:21:57.063Z,23.31
2019-04-25T13:24:28.149Z,23.42
2019-04-25T13:27:16.997Z,23.60
2019-04-25T13:30:15.253Z,23.74
2019-04-25T13:33:03.113Z,23.87
2019-04-25T13:35:38.344Z,24.01
2019-04-25T13:38:08.639Z,24.05
2019-04-25T13:40:39.688Z,24.05
2019-04-25T13:43:09.669Z,23.92
2019-04-25T13:45:40.191Z,23.84
2019-04-25T13:48:10.240Z,23.70
2019-04-25T13:50:44.364Z,23.53
2019-04-25T13:53:14.491Z,23.36
2019-04-25T13:55:44.360Z,23.15
2019-04-25T13:58:18.484Z,23.01
2019-04-25T14:00:51.792Z,22.98
2019-04-25T14:03:22.905Z,23.08
2019-04-25T14:06:05.195Z,23.23
2019-04-25T14:08:35.522Z,23.29
2019-04-25T14:11:05.410Z,23.43
2019-04-25T14:13:35.885Z,23.48
2019-04-25T14:16:19.645Z,23.49
2019-04-25T14:19:13.067Z,23.58
2019-04-25T14:21:44.088Z,23.55
2019-04-25T14:24:20.344Z,23.47
2019-04-25T14:26:48.021Z,23.45
2019-04-25T14:29:18.028Z,23.44
2019-04-25T14:31:48.605Z,23.45
2019-04-25T14:34:18.726Z,23.39
2019-04-25T14:36:48.693Z,23.41
2019-04-25T14:39:19.831Z,23.55
2019-04-25T14:41:49.793Z,23.66
2019-04-25T14:44:19.649Z,23.68
2019-04-25T14:46:49.532Z,23.80
2019-04-25T14:49:19.670Z,23.70
2019-04-25T14:51:49.753Z,23.45
2019-04-25T14:54:28.619Z,23.45
2019-04-25T14:57:12.050Z,23.32
2019-04-25T14:59:42.344Z,23.00
2019-04-25T15:02:12.749Z,23.02
2019-04-25T15:04:42.636Z,23.03
2019-04-25T15:07:12.563Z,23.01
2019-04-25T15:09:42.518Z,23.02
2019-04-25T15:12:13.013Z,23.08
2019-04-25T15:14:43.312Z,23.10
2019-04-25T15:17:14.205Z,23.24
2019-04-25T15:19:44.058Z,23.28
2019-04-25T15:22:14.099Z,23.23
2019-04-25T15:24:43.902Z,23.10
2019-04-25T15:27:14.076Z,22.92
2019-04-25T15:29:44.533Z,22.75
2019-04-25T15:32:17.545Z,22.62
2019-04-25T15:34:57.072Z,22.65
2019-04-25T15:37:51.336Z,22.80
2019-04-25T15:40:30.091Z,22.92
2019-04-25T15:43:16.740Z,23.00
2019-04-25T15:45:51.559Z,23.01
2019-04-25T15:48:21.381Z,23.01
2019-04-25T15:50:51.605Z,22.98
2019-04-25T15:53:22.054Z,22.95
2019-04-25T15:55:51.980Z,22.94
2019-04-25T15:58:21.881Z,22.96
2019-04-25T16:00:51.983Z,22.95
2019-04-25T16:03:21.880Z,22.92
2019-04-25T16:05:52.738Z,22.90
2019-04-25T16:08:22.603Z,22.89
2019-04-25T16:10:52.520Z,22.87
2019-04-25T16:13:22.588Z,22.88
2019-04-25T16:15:52.885Z,22.88
2019-04-25T16:18:22.779Z,22.83
2019-04-25T16:20:52.979Z,22.80
2019-04-25T16:23:22.842Z,22.80
2019-04-25T16:25:53.045Z,22.77
2019-04-25T16:28:24.230Z,22.76
2019-04-25T16:30:54.361Z,22.77
2019-04-25T16:33:24.385Z,22.78
2019-04-25T16:35:54.330Z,22.79
2019-04-25T16:38:24.652Z,22.76
2019-04-25T16:40:54.571Z,22.73
2019-04-25T16:43:28.609Z,22.70
2019-04-25T16:45:59.986Z,22.68
2019-04-25T16:48:30.030Z,22.65
2019-04-25T16:51:00.084Z,22.62
2019-04-25T16:53:30.316Z,22.60
2019-04-25T16:56:01.316Z,22.60
2019-04-25T16:58:31.325Z,22.56
2019-04-25T17:01:09.192Z,22.52
2019-04-25T17:03:39.715Z,22.47
2019-04-25T17:06:09.629Z,22.40
2019-04-25T17:08:40.233Z,22.33
2019-04-25T17:11:10.905Z,22.28
2019-04-25T17:13:53.819Z,22.23
2019-04-25T17:16:36.772Z,22.19
2019-04-25T17:19:10.172Z,22.13
2019-04-25T17:21:40.210Z,22.09
2019-04-25T17:24:10.189Z,22.02
2019-04-25T17:26:40.212Z,22.00
2019-04-25T17:29:15.346Z,21.96
2019-04-25T17:32:04.243Z,21.91
2019-04-25T17:35:08.292Z,21.88
2019-04-25T17:37:46.106Z,21.84
2019-04-25T17:40:19.946Z,21.79
2019-04-25T17:42:49.840Z,21.74
2019-04-25T17:45:24.273Z,21.69
2019-04-25T17:47:55.078Z,21.65
2019-04-25T17:50:26.227Z,21.60
2019-04-25T17:52:57.194Z,21.56
2019-04-25T17:55:27.197Z,21.53
2019-04-25T17:57:57.109Z,21.49
2019-04-25T18:00:35.870Z,21.46
2019-04-25T18:03:08.201Z,21.42
2019-04-25T18:05:38.050Z,21.39
2019-04-25T18:08:07.998Z,21.34
2019-04-25T18:10:38.068Z,21.31
2019-04-25T18:13:09.525Z,21.28
2019-04-25T18:15:53.301Z,21.21
2019-04-25T18:18:43.556Z,21.14
2019-04-25T18:21:13.733Z,21.08
2019-04-25T18:24:01.610Z,21.02
2019-04-25T18:26:37.203Z,20.97
2019-04-25T18:29:10.753Z,20.91
2019-04-25T18:31:41.607Z,20.86
2019-04-25T18:34:18.053Z,20.82
2019-04-25T18:37:15.943Z,20.75
2019-04-25T18:40:00.529Z,20.71
2019-04-25T18:42:54.409Z,20.67
2019-04-25T18:45:27.679Z,20.63
2019-04-25T18:48:01.157Z,20.57
2019-04-25T18:50:33.076Z,20.55
2019-04-25T18:53:20.031Z,20.51
2019-04-25T18:56:11.718Z,20.48
2019-04-25T18:58:53.975Z,20.47
2019-04-25T19:01:43.732Z,20.44
2019-04-25T19:04:19.717Z,20.38
2019-04-25T19:06:56.199Z,20.36
2019-04-25T19:09:21.460Z,20.36
2019-04-25T19:11:51.432Z,20.35
2019-04-25T19:14:21.257Z,20.33
2019-04-25T19:16:51.961Z,20.33
2019-04-25T19:19:21.765Z,20.32
2019-04-25T19:21:53.202Z,20.33
2019-04-25T19:24:23.520Z,20.31
2019-04-25T19:26:53.410Z,20.31
2019-04-25T19:29:23.271Z,20.31
2019-04-25T19:31:53.537Z,20.28
2019-04-25T19:34:23.430Z,20.25
2019-04-25T19:36:53.280Z,20.23
2019-04-25T19:39:24.856Z,20.22
2019-04-25T19:42:12.938Z,20.20
2019-04-25T19:44:42.821Z,20.18
2019-04-25T19:47:13.201Z,20.15
2019-04-25T19:49:43.062Z,20.13
2019-04-25T19:52:13.295Z,20.10
2019-04-25T19:54:43.423Z,20.07
2019-04-25T19:57:13.476Z,20.04
2019-04-25T19:59:44.617Z,20.04
2019-04-25T20:02:26.106Z,20.02
2019-04-25T20:05:03.794Z,20.02
2019-04-25T20:07:43.863Z,19.97
2019-04-25T20:10:27.343Z,19.93
2019-04-25T20:12:57.202Z,19.89
2019-04-25T20:15:27.145Z,19.84
2019-04-25T20:17:57.373Z,19.82
2019-04-25T20:20:27.369Z,19.79
2019-04-25T20:22:57.216Z,19.75
2019-04-25T20:25:27.317Z,19.49
2019-04-25T20:27:57.599Z,19.65
2019-04-25T20:30:27.611Z,19.62
2019-04-25T20:32:57.521Z,19.57
2019-04-25T20:35:27.578Z,19.53
2019-04-25T20:37:57.453Z,19.49
2019-04-25T20:40:27.328Z,19.45
2019-04-25T20:42:57.137Z,19.41
2019-04-25T20:45:27.238Z,19.36
2019-04-25T20:47:58.739Z,19.31
2019-04-25T20:50:28.635Z,19.25
2019-04-25T20:52:58.895Z,19.19
2019-04-25T20:55:28.773Z,19.11
2019-04-25T20:57:58.805Z,19.06
2019-04-25T21:00:40.471Z,19.03
2019-04-25T21:03:10.901Z,19.02
2019-04-25T21:05:42.252Z,18.99
2019-04-25T21:08:12.102Z,18.97
2019-04-25T21:10:42.040Z,18.93
2019-04-25T21:13:15.991Z,18.91
2019-04-25T21:15:56.178Z,18.88
2019-04-25T21:18:47.251Z,18.86
2019-04-25T21:21:17.378Z,18.86
2019-04-25T21:23:47.177Z,18.86
2019-04-25T21:26:17.158Z,18.87
2019-04-25T21:28:47.136Z,18.88
2019-04-25T21:31:17.208Z,18.89
2019-04-25T21:33:47.048Z,18.89
2019-04-25T21:36:17.241Z,18.90
2019-04-25T21:38:47.332Z,18.89
2019-04-25T21:41:19.708Z,18.88
2019-04-25T21:43:54.184Z,18.87
2019-04-25T21:46:24.325Z,18.86
2019-04-25T21:48:54.799Z,18.85
2019-04-25T21:51:33.750Z,18.85
2019-04-25T21:54:03.996Z,18.70
2019-04-25T21:56:34.248Z,18.82
2019-04-25T21:59:07.132Z,18.83
2019-04-25T22:01:39.659Z,18.83
2019-04-25T22:04:09.587Z,18.82
2019-04-25T22:06:39.918Z,18.80
2019-04-25T22:09:15.745Z,18.80
2019-04-25T22:11:46.140Z,18.80
2019-04-25T22:14:16.984Z,18.80
2019-04-25T22:16:47.301Z,18.80
2019-04-25T22:19:17.674Z,18.81
2019-04-25T22:21:47.849Z,18.81
2019-04-25T22:24:17.970Z,18.79
2019-04-25T22:26:50.432Z,18.79
2019-04-25T22:29:20.431Z,18.76
2019-04-25T22:32:03.476Z,18.79
2019-04-25T22:34:52.587Z,18.78
2019-04-25T22:37:23.028Z,18.70
2019-04-25T22:39:52.968Z,18.61
2019-04-25T22:42:22.838Z,18.58
2019-04-25T22:44:52.663Z,18.58
2019-04-25T22:47:22.637Z,18.56
2019-04-25T22:49:52.588Z,18.51
2019-04-25T22:52:22.859Z,18.44
2019-04-25T22:54:52.974Z,18.39
2019-04-25T22:57:23.420Z,18.19
2019-04-25T22:59:53.495Z,17.88
2019-04-25T23:02:30.536Z,17.61
2019-04-25T23:05:15.057Z,17.39
2019-04-25T23:07:41.758Z,17.13
2019-04-25T23:10:12.370Z,16.93
2019-04-25T23:12:42.536Z,16.78
2019-04-25T23:15:13.083Z,16.70
2019-04-25T23:17:43.256Z,16.62
2019-04-25T23:20:13.880Z,16.54
2019-04-25T23:22:43.720Z,16.48
2019-04-25T23:25:15.855Z,16.40
2019-04-25T23:28:00.926Z,16.31
2019-04-25T23:30:40.260Z,16.22
2019-04-25T23:33:10.656Z,16.17
2019-04-25T23:35:42.195Z,16.11
2019-04-25T23:38:14.546Z,16.07
2019-04-25T23:40:43.728Z,16.03
2019-04-25T23:43:13.922Z,15.99
2019-04-25T23:45:44.193Z,15.96
2019-04-25T23:48:14.523Z,15.93
2019-04-25T23:50:44.484Z,15.89
2019-04-25T23:53:15.030Z,15.85
2019-04-25T23:55:44.971Z,15.83
2019-04-25T23:58:15.604Z,15.77
